Little Rock, South Carolina
Current Conditions -  °F | °C
As of 9:35 PM on Wednesday 17 Dec 2014 (Local Time) from KMAO Reporting Station
Clear Clear  
Wind Chill: 43°   Ceiling: Unl
Heat Index: 43°   Visibility: 10mi
Dew Point: 41°   Wind: 0mph
Humidity: 93%   Direction: NA
Pressure: 30.1"   Gusts: NA
Location:  34.47°N, 79.41°W
Report Text: KMAO 180235Z AUTO 00000KT 10SM CLR 06/05 A3010 RMK AO2
Loading
Personal Weather Stations






























Interactive Weather Map New forecast layout! Learn more

10-Day Weather Forecast

Advertisements
Track Severe Weather on mobile